Time,TemperatureF,DewpointF,PressureIn,WindDirection,WindDirectionDegrees,WindSpeedMPH,WindSpeedGustMPH,Humidity,HourlyPrecipIn,Conditions,Clouds,dailyrainin,SoftwareType,DateUTC
2013-02-08 00:00:00,25.0,22.8,29.39,North,0,0.0,0.0,91,0.00,,,0.00,WUHU216HW,2013-02-08 09:00:00,
2013-02-08 00:05:00,25.0,22.8,29.39,North,0,0.0,0.0,91,0.00,,,0.00,WUHU216HW,2013-02-08 09:05:00,
2013-02-08 00:10:00,25.0,22.8,29.39,North,0,0.0,0.0,91,0.00,,,0.00,WUHU216HW,2013-02-08 09:10:00,
2013-02-08 00:15:00,25.0,22.5,29.39,North,0,0.0,0.0,90,0.00,,,0.00,WUHU216HW,2013-02-08 09:15:00,
2013-02-08 00:20:00,25.0,22.5,29.39,North,0,0.0,0.0,90,0.00,,,0.00,WUHU216HW,2013-02-08 09:20:00,
2013-02-08 00:25:00,25.0,22.5,29.40,North,0,0.0,0.0,90,0.00,,,0.00,WUHU216HW,2013-02-08 09:25:00,
2013-02-08 00:30:00,25.0,22.8,29.40,North,0,0.0,0.0,91,0.00,,,0.00,WUHU216HW,2013-02-08 09:30:00,
2013-02-08 00:35:00,25.2,23.0,29.40,North,0,0.0,0.0,91,0.00,,,0.00,WUHU216HW,2013-02-08 09:35:00,
2013-02-08 00:40:00,25.2,23.0,29.40,North,0,0.0,0.0,91,0.00,,,0.00,WUHU216HW,2013-02-08 09:40:00,
2013-02-08 00:45:00,25.2,23.0,29.40,North,0,0.0,0.0,91,0.00,,,0.00,WUHU216HW,2013-02-08 09:45:00,
2013-02-08 00:50:00,25.4,23.1,29.40,North,0,0.0,0.0,91,0.00,,,0.00,WUHU216HW,2013-02-08 09:50:00,
2013-02-08 00:55:00,25.6,23.3,29.40,North,0,0.0,0.0,91,0.00,,,0.00,WUHU216HW,2013-02-08 09:55:00,
2013-02-08 01:00:00,25.6,23.3,29.40,North,0,0.0,0.0,91,0.00,,,0.00,WUHU216HW,2013-02-08 10:00:00,
2013-02-08 01:05:00,25.7,23.5,29.40,North,0,0.0,0.0,91,0.00,,,0.00,WUHU216HW,2013-02-08 10:05:00,
2013-02-08 01:10:00,25.7,23.5,29.40,North,0,0.0,0.0,91,0.00,,,0.00,WUHU216HW,2013-02-08 10:10:00,
2013-02-08 01:15:00,25.7,23.5,29.40,North,0,0.0,0.0,91,0.00,,,0.00,WUHU216HW,2013-02-08 10:15:00,
2013-02-08 01:20:00,25.9,23.7,29.40,North,0,0.0,0.0,91,0.00,,,0.00,WUHU216HW,2013-02-08 10:20:00,
2013-02-08 01:25:00,25.9,23.7,29.40,North,0,0.0,0.0,91,0.00,,,0.00,WUHU216HW,2013-02-08 10:25:00,
2013-02-08 01:30:00,26.1,23.9,29.41,North,0,0.0,0.0,91,0.00,,,0.00,WUHU216HW,2013-02-08 10:30:00,
2013-02-08 01:35:00,26.1,23.9,29.41,North,0,0.0,0.0,91,0.00,,,0.00,WUHU216HW,2013-02-08 10:35:00,
2013-02-08 01:40:00,26.1,23.9,29.41,North,0,0.0,0.0,91,0.00,,,0.00,WUHU216HW,2013-02-08 10:40:00,
2013-02-08 01:45:00,26.1,23.9,29.42,North,0,0.0,0.0,91,0.00,,,0.00,WUHU216HW,2013-02-08 10:45:00,
2013-02-08 01:50:00,26.1,23.9,29.42,North,0,0.0,0.0,91,0.00,,,0.00,WUHU216HW,2013-02-08 10:50:00,
2013-02-08 01:55:00,25.9,23.7,29.42,North,0,0.0,0.0,91,0.00,,,0.00,WUHU216HW,2013-02-08 10:55:00,
2013-02-08 02:00:00,25.9,23.7,29.42,North,0,0.0,0.0,91,0.00,,,0.00,WUHU216HW,2013-02-08 11:00:00,
2013-02-08 02:05:00,25.7,23.5,29.42,North,0,0.0,0.0,91,0.00,,,0.00,WUHU216HW,2013-02-08 11:05:00,
2013-02-08 02:10:00,25.7,23.5,29.42,North,0,0.0,0.0,91,0.00,,,0.00,WUHU216HW,2013-02-08 11:10:00,
2013-02-08 02:15:00,25.7,23.5,29.42,North,0,0.0,0.0,91,0.00,,,0.00,WUHU216HW,2013-02-08 11:15:00,
2013-02-08 02:20:00,25.9,23.7,29.42,North,0,0.0,0.0,91,0.00,,,0.00,WUHU216HW,2013-02-08 11:20:00,
2013-02-08 02:25:00,25.9,23.7,29.42,North,0,0.0,0.0,91,0.00,,,0.00,WUHU216HW,2013-02-08 11:25:00,
2013-02-08 02:30:00,25.9,23.7,29.42,North,0,0.0,0.0,91,0.00,,,0.00,WUHU216HW,2013-02-08 11:30:00,
2013-02-08 02:35:00,25.7,23.5,29.42,North,0,0.0,0.0,91,0.00,,,0.00,WUHU216HW,2013-02-08 11:35:00,
2013-02-08 02:40:00,25.6,23.3,29.42,North,0,0.0,0.0,91,0.00,,,0.00,WUHU216HW,2013-02-08 11:40:00,
2013-02-08 02:45:00,25.4,23.1,29.42,North,0,0.0,0.0,91,0.00,,,0.00,WUHU216HW,2013-02-08 11:45:00,
2013-02-08 02:50:00,25.2,23.0,29.43,North,0,0.0,0.0,91,0.00,,,0.00,WUHU216HW,2013-02-08 11:50:00,
2013-02-08 02:55:00,25.2,23.0,29.43,North,0,0.0,0.0,91,0.00,,,0.00,WUHU216HW,2013-02-08 11:55:00,
2013-02-08 03:00:00,25.4,23.1,29.43,North,0,0.0,0.0,91,0.00,,,0.00,WUHU216HW,2013-02-08 12:00:00,
2013-02-08 03:05:00,25.6,23.3,29.43,North,0,0.0,0.0,91,0.00,,,0.00,WUHU216HW,2013-02-08 12:05:00,
2013-02-08 03:10:00,25.6,23.3,29.43,North,0,0.0,0.0,91,0.00,,,0.00,WUHU216HW,2013-02-08 12:10:00,
2013-02-08 03:15:00,25.6,23.3,29.44,North,0,0.0,0.0,91,0.00,,,0.00,WUHU216HW,2013-02-08 12:15:00,
2013-02-08 03:20:00,25.7,23.5,29.44,North,0,0.0,0.0,91,0.00,,,0.00,WUHU216HW,2013-02-08 12:20:00,
2013-02-08 03:25:00,25.9,23.7,29.44,North,0,0.0,0.0,91,0.00,,,0.00,WUHU216HW,2013-02-08 12:25:00,
2013-02-08 03:30:00,25.7,23.5,29.44,North,0,0.0,0.0,91,0.00,,,0.00,WUHU216HW,2013-02-08 12:30:00,
2013-02-08 03:35:00,25.6,23.3,29.44,North,0,0.0,0.0,91,0.00,,,0.00,WUHU216HW,2013-02-08 12:35:00,
2013-02-08 03:40:00,25.6,23.3,29.45,North,0,0.0,0.0,91,0.00,,,0.00,WUHU216HW,2013-02-08 12:40:00,
2013-02-08 03:45:00,25.4,23.1,29.45,North,0,0.0,0.0,91,0.00,,,0.00,WUHU216HW,2013-02-08 12:45:00,
2013-02-08 03:50:00,25.6,23.3,29.45,North,0,0.0,0.0,91,0.00,,,0.00,WUHU216HW,2013-02-08 12:50:00,
2013-02-08 03:55:00,25.7,23.8,29.45,North,0,0.0,0.0,92,0.00,,,0.00,WUHU216HW,2013-02-08 12:55:00,
2013-02-08 04:00:00,25.7,23.5,29.45,North,0,0.0,0.0,91,0.00,,,0.00,WUHU216HW,2013-02-08 13:00:00,
2013-02-08 04:05:00,25.9,23.7,29.46,North,0,0.0,0.0,91,0.00,,,0.00,WUHU216HW,2013-02-08 13:05:00,
2013-02-08 04:10:00,26.1,23.9,29.46,North,0,0.0,0.0,91,0.00,,,0.00,WUHU216HW,2013-02-08 13:10:00,
2013-02-08 04:15:00,26.1,23.9,29.46,North,0,0.0,0.0,91,0.00,,,0.00,WUHU216HW,2013-02-08 13:15:00,
2013-02-08 04:20:00,26.1,23.9,29.46,North,0,0.0,0.0,91,0.00,,,0.00,WUHU216HW,2013-02-08 13:20:00,
2013-02-08 04:25:00,26.3,24.0,29.47,North,0,0.0,0.0,91,0.00,,,0.00,WUHU216HW,2013-02-08 13:25:00,
2013-02-08 04:30:00,26.3,24.0,29.47,North,0,0.0,0.0,91,0.00,,,0.00,WUHU216HW,2013-02-08 13:30:00,
2013-02-08 04:35:00,26.3,24.0,29.47,North,0,0.0,0.0,91,0.00,,,0.00,WUHU216HW,2013-02-08 13:35:00,
2013-02-08 04:40:00,26.3,24.0,29.47,North,0,0.0,0.0,91,0.00,,,0.00,WUHU216HW,2013-02-08 13:40:00,
2013-02-08 04:45:00,26.3,24.0,29.47,North,0,0.0,0.0,91,0.00,,,0.00,WUHU216HW,2013-02-08 13:45:00,
2013-02-08 04:50:00,26.5,24.2,29.48,North,0,0.0,0.0,91,0.00,,,0.00,WUHU216HW,2013-02-08 13:50:00,
2013-02-08 04:55:00,26.5,24.2,29.48,North,0,0.0,0.0,91,0.00,,,0.00,WUHU216HW,2013-02-08 13:55:00,
2013-02-08 05:00:00,26.6,24.4,29.48,North,0,0.0,0.0,91,0.00,,,0.00,WUHU216HW,2013-02-08 14:00:00,
2013-02-08 05:05:00,26.8,24.6,29.49,North,0,0.0,0.0,91,0.00,,,0.00,WUHU216HW,2013-02-08 14:05:00,
2013-02-08 05:10:00,26.8,24.6,29.49,North,0,0.0,0.0,91,0.00,,,0.00,WUHU216HW,2013-02-08 14:10:00,
2013-02-08 05:15:00,26.8,24.6,29.49,North,0,0.0,0.0,91,0.00,,,0.00,WUHU216HW,2013-02-08 14:15:00,
2013-02-08 05:20:00,27.0,24.8,29.49,North,0,0.0,0.0,91,0.00,,,0.00,WUHU216HW,2013-02-08 14:20:00,
2013-02-08 05:25:00,27.0,24.8,29.50,North,0,0.0,0.0,91,0.00,,,0.00,WUHU216HW,2013-02-08 14:25:00,
2013-02-08 05:30:00,27.0,24.8,29.50,North,0,0.0,0.0,91,0.00,,,0.00,WUHU216HW,2013-02-08 14:30:00,
2013-02-08 05:35:00,27.0,24.8,29.50,North,0,0.0,0.0,91,0.00,,,0.00,WUHU216HW,2013-02-08 14:35:00,
2013-02-08 05:40:00,27.0,24.8,29.50,North,0,0.0,0.0,91,0.00,,,0.00,WUHU216HW,2013-02-08 14:40:00,
2013-02-08 05:45:00,27.0,24.8,29.50,North,0,0.0,0.0,91,0.00,,,0.00,WUHU216HW,2013-02-08 14:45:00,
2013-02-08 05:50:00,27.0,24.8,29.50,North,0,0.0,0.0,91,0.00,,,0.00,WUHU216HW,2013-02-08 14:50:00,
2013-02-08 05:55:00,27.2,24.9,29.51,North,0,0.0,0.0,91,0.00,,,0.00,WUHU216HW,2013-02-08 14:55:00,
2013-02-08 06:00:00,27.2,24.9,29.51,North,0,0.0,0.0,91,0.00,,,0.00,WUHU216HW,2013-02-08 15:00:00,
2013-02-08 06:05:00,27.2,24.9,29.51,North,0,0.0,0.0,91,0.00,,,0.00,WUHU216HW,2013-02-08 15:05:00,
2013-02-08 06:10:00,27.2,24.9,29.51,North,0,0.0,0.0,91,0.00,,,0.00,WUHU216HW,2013-02-08 15:10:00,
2013-02-08 06:15:00,27.2,24.9,29.52,North,0,0.0,0.0,91,0.00,,,0.00,WUHU216HW,2013-02-08 15:15:00,
2013-02-08 06:20:00,27.2,24.9,29.52,North,0,0.0,0.0,91,0.00,,,0.00,WUHU216HW,2013-02-08 15:20:00,
2013-02-08 06:25:00,27.2,24.9,29.52,North,0,0.0,0.0,91,0.00,,,0.00,WUHU216HW,2013-02-08 15:25:00,
2013-02-08 06:30:00,27.4,25.1,29.52,North,0,0.0,0.0,91,0.00,,,0.00,WUHU216HW,2013-02-08 15:30:00,
2013-02-08 06:35:00,27.5,25.3,29.53,North,0,0.0,0.0,91,0.00,,,0.00,WUHU216HW,2013-02-08 15:35:00,
2013-02-08 06:40:00,27.7,25.5,29.52,North,0,0.0,0.0,91,0.00,,,0.00,WUHU216HW,2013-02-08 15:40:00,
2013-02-08 06:45:00,27.9,25.7,29.53,North,0,0.0,0.0,91,0.00,,,0.00,WUHU216HW,2013-02-08 15:45:00,
2013-02-08 06:50:00,28.1,25.8,29.53,North,0,0.0,0.0,91,0.00,,,0.00,WUHU216HW,2013-02-08 15:50:00,
2013-02-08 06:55:00,28.3,26.0,29.54,North,0,0.0,0.0,91,0.00,,,0.00,WUHU216HW,2013-02-08 15:55:00,
2013-02-08 07:00:00,28.3,26.0,29.54,North,0,0.0,0.0,91,0.00,,,0.00,WUHU216HW,2013-02-08 16:00:00,
2013-02-08 07:06:00,28.3,26.0,29.54,North,0,0.0,0.0,91,0.00,,,0.00,WUHU216HW,2013-02-08 16:06:00,
2013-02-08 07:11:00,28.3,26.0,29.54,North,0,0.0,0.0,91,0.00,,,0.00,WUHU216HW,2013-02-08 16:11:00,
2013-02-08 07:15:00,28.3,26.0,29.55,North,0,0.0,0.0,91,0.00,,,0.00,WUHU216HW,2013-02-08 16:15:00,
2013-02-08 07:20:00,28.3,26.3,29.55,North,0,0.0,0.0,92,0.00,,,0.00,WUHU216HW,2013-02-08 16:20:00,
2013-02-08 07:25:00,28.3,26.3,29.55,North,0,0.0,0.0,92,0.00,,,0.00,WUHU216HW,2013-02-08 16:25:00,
2013-02-08 07:30:00,28.3,26.3,29.55,North,0,0.0,0.0,92,0.00,,,0.00,WUHU216HW,2013-02-08 16:30:00,
2013-02-08 07:35:00,28.3,26.3,29.56,North,0,0.0,0.0,92,0.00,,,0.00,WUHU216HW,2013-02-08 16:35:00,
2013-02-08 07:40:00,28.3,26.0,29.57,North,0,0.0,0.0,91,0.00,,,0.00,WUHU216HW,2013-02-08 16:40:00,
2013-02-08 07:45:00,28.4,26.5,29.57,North,0,0.0,0.0,92,0.00,,,0.00,WUHU216HW,2013-02-08 16:45:00,
2013-02-08 07:50:00,28.4,26.5,29.57,North,0,0.0,0.0,92,0.00,,,0.00,WUHU216HW,2013-02-08 16:50:00,
2013-02-08 07:55:00,28.4,26.2,29.57,North,0,0.0,0.0,91,0.00,,,0.00,WUHU216HW,2013-02-08 16:55:00,
2013-02-08 08:00:00,28.4,26.2,29.57,North,0,0.0,0.0,91,0.00,,,0.00,WUHU216HW,2013-02-08 17:00:00,
2013-02-08 08:05:00,28.4,26.2,29.58,North,0,0.0,0.0,91,0.00,,,0.00,WUHU216HW,2013-02-08 17:05:00,
2013-02-08 08:10:00,28.4,26.2,29.58,North,0,0.0,0.0,91,0.00,,,0.00,WUHU216HW,2013-02-08 17:10:00,
2013-02-08 08:15:00,28.4,26.2,29.58,North,0,0.0,0.0,91,0.00,,,0.00,WUHU216HW,2013-02-08 17:15:00,
2013-02-08 08:20:00,28.4,26.2,29.58,North,0,0.0,0.0,91,0.00,,,0.00,WUHU216HW,2013-02-08 17:20:00,
2013-02-08 08:25:00,28.4,26.2,29.59,North,0,0.0,0.0,91,0.00,,,0.00,WUHU216HW,2013-02-08 17:25:00,
2013-02-08 08:30:00,28.4,26.2,29.59,North,0,0.0,0.0,91,0.00,,,0.00,WUHU216HW,2013-02-08 17:30:00,
2013-02-08 08:35:00,28.4,26.2,29.59,North,0,0.0,0.0,91,0.00,,,0.00,WUHU216HW,2013-02-08 17:35:00,
2013-02-08 08:40:00,28.4,26.5,29.60,North,0,0.0,0.0,92,0.00,,,0.00,WUHU216HW,2013-02-08 17:40:00,
2013-02-08 08:45:00,28.4,26.2,29.60,North,0,0.0,0.0,91,0.00,,,0.00,WUHU216HW,2013-02-08 17:45:00,
2013-02-08 08:50:00,28.4,26.5,29.60,North,0,0.0,0.0,92,0.00,,,0.00,WUHU216HW,2013-02-08 17:50:00,
2013-02-08 08:55:00,28.6,26.4,29.61,North,0,0.0,0.0,91,0.00,,,0.00,WUHU216HW,2013-02-08 17:55:00,
2013-02-08 09:01:00,28.6,26.4,29.61,North,0,0.0,0.0,91,0.00,,,0.00,WUHU216HW,2013-02-08 18:01:00,
2013-02-08 09:06:00,28.6,26.4,29.61,North,0,0.0,0.0,91,0.00,,,0.00,WUHU216HW,2013-02-08 18:06:00,
2013-02-08 09:11:00,28.6,26.4,29.61,North,0,0.0,0.0,91,0.00,,,0.00,WUHU216HW,2013-02-08 18:11:00,
2013-02-08 09:16:00,28.8,26.6,29.62,North,0,0.0,0.0,91,0.00,,,0.00,WUHU216HW,2013-02-08 18:16:00,
2013-02-08 09:21:00,28.8,26.6,29.62,North,0,0.0,0.0,91,0.00,,,0.00,WUHU216HW,2013-02-08 18:21:00,
2013-02-08 09:26:00,28.8,26.6,29.62,North,0,0.0,0.0,91,0.00,,,0.00,WUHU216HW,2013-02-08 18:26:00,
2013-02-08 09:31:00,28.8,26.6,29.63,North,0,0.0,0.0,91,0.00,,,0.00,WUHU216HW,2013-02-08 18:31:00,
2013-02-08 09:36:00,28.8,26.6,29.63,North,0,0.0,0.0,91,0.00,,,0.00,WUHU216HW,2013-02-08 18:36:00,
2013-02-08 09:41:00,29.0,26.7,29.63,North,0,0.0,0.0,91,0.00,,,0.00,WUHU216HW,2013-02-08 18:41:00,
2013-02-08 09:46:00,29.2,26.9,29.63,North,0,0.0,0.0,91,0.00,,,0.00,WUHU216HW,2013-02-08 18:46:00,
2013-02-08 09:51:00,29.3,27.1,29.64,North,0,0.0,0.0,91,0.00,,,0.00,WUHU216HW,2013-02-08 18:51:00,
2013-02-08 09:56:00,29.5,27.3,29.64,North,0,0.0,0.0,91,0.00,,,0.00,WUHU216HW,2013-02-08 18:56:00,
2013-02-08 10:01:00,29.5,27.3,29.64,North,0,0.0,0.0,91,0.00,,,0.00,WUHU216HW,2013-02-08 19:01:00,
2013-02-08 10:06:00,29.7,27.5,29.65,North,0,0.0,0.0,91,0.00,,,0.00,WUHU216HW,2013-02-08 19:06:00,
2013-02-08 10:11:00,29.9,27.6,29.65,North,0,0.0,0.0,91,0.00,,,0.00,WUHU216HW,2013-02-08 19:11:00,
2013-02-08 10:16:00,30.1,27.8,29.65,North,0,0.0,0.0,91,0.00,,,0.00,WUHU216HW,2013-02-08 19:16:00,
2013-02-08 10:21:00,30.2,28.0,29.65,North,0,0.0,0.0,91,0.00,,,0.00,WUHU216HW,2013-02-08 19:21:00,
2013-02-08 10:26:00,30.4,28.2,29.65,North,0,0.0,0.0,91,0.00,,,0.00,WUHU216HW,2013-02-08 19:26:00,
2013-02-08 10:31:00,30.6,28.4,29.65,North,0,0.0,0.0,91,0.00,,,0.00,WUHU216HW,2013-02-08 19:31:00,
2013-02-08 10:36:00,31.0,28.7,29.66,North,0,0.0,0.0,91,0.00,,,0.00,WUHU216HW,2013-02-08 19:36:00,
2013-02-08 10:41:00,31.1,28.9,29.66,North,0,0.0,0.0,91,0.00,,,0.00,WUHU216HW,2013-02-08 19:41:00,
2013-02-08 10:46:00,31.3,29.1,29.66,North,0,0.0,0.0,91,0.00,,,0.00,WUHU216HW,2013-02-08 19:46:00,
2013-02-08 10:51:00,31.3,29.1,29.67,North,0,0.0,0.0,91,0.00,,,0.00,WUHU216HW,2013-02-08 19:51:00,
2013-02-08 10:56:00,31.3,29.1,29.67,North,0,0.0,0.0,91,0.00,,,0.00,WUHU216HW,2013-02-08 19:56:00,
2013-02-08 11:01:00,31.1,28.9,29.67,North,0,0.0,0.0,91,0.00,,,0.00,WUHU216HW,2013-02-08 20:01:00,
2013-02-08 11:06:00,31.3,29.1,29.67,North,0,0.0,0.0,91,0.00,,,0.00,WUHU216HW,2013-02-08 20:06:00,
2013-02-08 11:11:00,31.3,28.8,29.68,North,0,0.0,0.0,90,0.00,,,0.00,WUHU216HW,2013-02-08 20:11:00,
2013-02-08 11:16:00,31.3,28.8,29.68,North,0,0.0,0.0,90,0.00,,,0.00,WUHU216HW,2013-02-08 20:16:00,
2013-02-08 11:21:00,31.3,28.8,29.68,North,0,0.0,0.0,90,0.00,,,0.00,WUHU216HW,2013-02-08 20:21:00,
2013-02-08 11:26:00,31.5,29.0,29.68,North,0,0.0,0.0,90,0.00,,,0.00,WUHU216HW,2013-02-08 20:26:00,
2013-02-08 11:31:00,31.7,29.2,29.69,North,0,0.0,0.0,90,0.00,,,0.00,WUHU216HW,2013-02-08 20:31:00,
2013-02-08 11:36:00,31.9,29.3,29.69,North,0,0.0,0.0,90,0.00,,,0.00,WUHU216HW,2013-02-08 20:36:00,
2013-02-08 11:41:00,31.9,29.3,29.69,North,0,0.0,0.0,90,0.00,,,0.00,WUHU216HW,2013-02-08 20:41:00,
2013-02-08 11:46:00,31.9,29.3,29.69,North,0,0.0,0.0,90,0.00,,,0.00,WUHU216HW,2013-02-08 20:46:00,
2013-02-08 11:51:00,31.9,29.3,29.69,North,0,0.0,0.0,90,0.00,,,0.00,WUHU216HW,2013-02-08 20:51:00,
2013-02-08 11:56:00,31.9,29.3,29.69,North,0,0.0,0.0,90,0.00,,,0.00,WUHU216HW,2013-02-08 20:56:00,
2013-02-08 12:01:00,32.0,29.8,29.69,North,0,0.0,0.0,91,0.00,,,0.00,WUHU216HW,2013-02-08 21:01:00,
2013-02-08 12:06:00,32.0,29.8,29.69,North,0,0.0,0.0,91,0.00,,,0.00,WUHU216HW,2013-02-08 21:06:00,
2013-02-08 12:11:00,32.2,29.7,29.69,North,0,0.0,0.0,90,0.00,,,0.00,WUHU216HW,2013-02-08 21:11:00,
2013-02-08 12:16:00,32.4,29.9,29.69,North,0,0.0,0.0,90,0.00,,,0.00,WUHU216HW,2013-02-08 21:16:00,
2013-02-08 12:21:00,32.8,30.2,29.69,North,0,0.0,0.0,90,0.00,,,0.00,WUHU216HW,2013-02-08 21:21:00,
2013-02-08 12:26:00,32.8,30.2,29.70,North,0,0.0,0.0,90,0.00,,,0.00,WUHU216HW,2013-02-08 21:26:00,
2013-02-08 12:31:00,32.8,30.2,29.70,North,0,0.0,0.0,90,0.00,,,0.00,WUHU216HW,2013-02-08 21:31:00,
2013-02-08 12:36:00,32.8,30.2,29.70,North,0,0.0,0.0,90,0.00,,,0.00,WUHU216HW,2013-02-08 21:36:00,
2013-02-08 12:41:00,32.8,30.2,29.70,North,0,0.0,0.0,90,0.00,,,0.00,WUHU216HW,2013-02-08 21:41:00,
2013-02-08 12:46:00,32.6,30.0,29.70,North,0,0.0,0.0,90,0.00,,,0.00,WUHU216HW,2013-02-08 21:46:00,
2013-02-08 12:51:00,32.8,30.2,29.71,North,0,0.0,0.0,90,0.00,,,0.00,WUHU216HW,2013-02-08 21:51:00,
2013-02-08 12:56:00,32.8,30.2,29.71,North,0,0.0,0.0,90,0.00,,,0.00,WUHU216HW,2013-02-08 21:56:00,
2013-02-08 13:01:00,32.8,30.2,29.71,North,0,0.0,0.0,90,0.00,,,0.00,WUHU216HW,2013-02-08 22:01:00,
2013-02-08 13:06:00,32.4,29.9,29.71,North,0,0.0,0.0,90,0.00,,,0.00,WUHU216HW,2013-02-08 22:06:00,
2013-02-08 13:11:00,32.2,29.7,29.72,North,0,0.0,0.0,90,0.00,,,0.00,WUHU216HW,2013-02-08 22:11:00,
2013-02-08 13:16:00,32.2,29.7,29.71,North,0,0.0,0.0,90,0.00,,,0.00,WUHU216HW,2013-02-08 22:16:00,
2013-02-08 13:21:00,32.4,29.9,29.72,North,0,0.0,0.0,90,0.00,,,0.00,WUHU216HW,2013-02-08 22:21:00,
2013-02-08 13:26:00,32.4,29.9,29.72,North,0,0.0,0.0,90,0.00,,,0.00,WUHU216HW,2013-02-08 22:26:00,
2013-02-08 13:31:00,32.4,29.9,29.72,North,0,0.0,0.0,90,0.00,,,0.00,WUHU216HW,2013-02-08 22:31:00,
2013-02-08 13:36:00,32.4,29.9,29.72,North,0,0.0,0.0,90,0.00,,,0.00,WUHU216HW,2013-02-08 22:36:00,
2013-02-08 13:41:00,32.6,30.0,29.72,North,0,0.0,0.0,90,0.00,,,0.00,WUHU216HW,2013-02-08 22:41:00,
2013-02-08 13:46:00,32.6,30.0,29.73,North,0,0.0,0.0,90,0.00,,,0.00,WUHU216HW,2013-02-08 22:46:00,
2013-02-08 13:51:00,32.6,30.0,29.73,North,0,0.0,0.0,90,0.00,,,0.00,WUHU216HW,2013-02-08 22:51:00,
2013-02-08 13:56:00,32.6,29.7,29.73,North,0,0.0,0.0,89,0.00,,,0.00,WUHU216HW,2013-02-08 22:56:00,
2013-02-08 14:01:00,32.8,30.2,29.73,North,0,0.0,0.0,90,0.00,,,0.00,WUHU216HW,2013-02-08 23:01:00,
2013-02-08 14:06:00,33.1,30.3,29.73,North,0,0.0,0.0,89,0.00,,,0.00,WUHU216HW,2013-02-08 23:06:00,
2013-02-08 14:11:00,33.1,30.3,29.73,North,0,0.0,0.0,89,0.00,,,0.00,WUHU216HW,2013-02-08 23:11:00,
2013-02-08 14:16:00,33.1,29.9,29.73,North,0,0.0,0.0,88,0.00,,,0.00,WUHU216HW,2013-02-08 23:16:00,
2013-02-08 14:21:00,32.9,29.8,29.73,North,0,0.0,0.0,88,0.00,,,0.00,WUHU216HW,2013-02-08 23:21:00,
2013-02-08 14:26:00,33.1,30.3,29.73,North,0,0.0,0.0,89,0.00,,,0.00,WUHU216HW,2013-02-08 23:26:00,
2013-02-08 14:31:00,33.5,30.5,29.74,North,0,0.0,0.0,89,0.00,,,0.00,WUHU216HW,2013-02-08 23:31:00,
2013-02-08 14:36:00,33.3,30.1,29.74,North,0,0.0,0.0,88,0.00,,,0.00,WUHU216HW,2013-02-08 23:36:00,
2013-02-08 14:41:00,33.1,29.6,29.73,North,0,0.0,0.0,87,0.00,,,0.00,WUHU216HW,2013-02-08 23:41:00,
2013-02-08 14:46:00,33.1,29.9,29.74,North,0,0.0,0.0,88,0.00,,,0.00,WUHU216HW,2013-02-08 23:46:00,
2013-02-08 14:51:00,33.1,29.9,29.74,North,0,0.0,0.0,88,0.00,,,0.00,WUHU216HW,2013-02-08 23:51:00,
2013-02-08 14:56:00,33.1,29.9,29.74,North,0,0.0,0.0,88,0.00,,,0.00,WUHU216HW,2013-02-08 23:56:00,
2013-02-08 15:01:00,33.1,29.9,29.74,North,0,0.0,0.0,88,0.00,,,0.00,WUHU216HW,2013-02-09 00:01:00,
2013-02-08 15:06:00,33.1,29.9,29.74,North,0,0.0,0.0,88,0.00,,,0.00,WUHU216HW,2013-02-09 00:06:00,
2013-02-08 15:11:00,32.9,29.8,29.74,North,0,0.0,0.0,88,0.00,,,0.00,WUHU216HW,2013-02-09 00:11:00,
2013-02-08 15:16:00,32.9,29.8,29.74,North,0,0.0,0.0,88,0.00,,,0.00,WUHU216HW,2013-02-09 00:16:00,
2013-02-08 15:21:00,33.1,29.9,29.74,North,0,0.0,0.0,88,0.00,,,0.00,WUHU216HW,2013-02-09 00:21:00,
2013-02-08 15:26:00,33.1,29.9,29.75,North,0,0.0,0.0,88,0.00,,,0.00,WUHU216HW,2013-02-09 00:26:00,
2013-02-08 15:31:00,33.1,29.9,29.75,North,0,0.0,0.0,88,0.00,,,0.00,WUHU216HW,2013-02-09 00:31:00,
2013-02-08 15:36:00,33.1,29.9,29.75,North,0,0.0,0.0,88,0.00,,,0.00,WUHU216HW,2013-02-09 00:36:00,
2013-02-08 15:41:00,33.1,29.9,29.75,North,0,0.0,0.0,88,0.00,,,0.00,WUHU216HW,2013-02-09 00:41:00,
2013-02-08 15:46:00,33.1,29.9,29.75,North,0,0.0,0.0,88,0.00,,,0.00,WUHU216HW,2013-02-09 00:46:00,
2013-02-08 15:51:00,32.9,29.8,29.75,North,0,0.0,0.0,88,0.00,,,0.00,WUHU216HW,2013-02-09 00:51:00,
2013-02-08 15:56:00,32.8,29.6,29.75,North,0,0.0,0.0,88,0.00,,,0.00,WUHU216HW,2013-02-09 00:56:00,
2013-02-08 16:01:00,32.8,29.6,29.75,North,0,0.0,0.0,88,0.00,,,0.00,WUHU216HW,2013-02-09 01:01:00,
2013-02-08 16:06:00,32.6,29.4,29.75,North,0,0.0,0.0,88,0.00,,,0.00,WUHU216HW,2013-02-09 01:06:00,
2013-02-08 16:11:00,32.6,29.7,29.75,North,0,0.0,0.0,89,0.00,,,0.00,WUHU216HW,2013-02-09 01:11:00,
2013-02-08 16:16:00,32.4,29.5,29.76,North,0,0.0,0.0,89,0.00,,,0.00,WUHU216HW,2013-02-09 01:16:00,
2013-02-08 16:21:00,32.4,29.5,29.75,North,0,0.0,0.0,89,0.00,,,0.00,WUHU216HW,2013-02-09 01:21:00,
2013-02-08 16:26:00,32.4,29.5,29.76,North,0,0.0,0.0,89,0.00,,,0.00,WUHU216HW,2013-02-09 01:26:00,
2013-02-08 16:31:00,32.6,29.7,29.76,North,0,0.0,0.0,89,0.00,,,0.00,WUHU216HW,2013-02-09 01:31:00,
2013-02-08 16:36:00,32.2,29.4,29.76,North,0,0.0,0.0,89,0.00,,,0.00,WUHU216HW,2013-02-09 01:36:00,
2013-02-08 16:41:00,32.0,29.3,29.76,North,0,0.0,0.0,89,0.00,,,0.00,WUHU216HW,2013-02-09 01:41:00,
2013-02-08 16:46:00,32.2,29.4,29.76,North,0,0.0,0.0,89,0.00,,,0.00,WUHU216HW,2013-02-09 01:46:00,
2013-02-08 16:51:00,32.0,29.3,29.76,North,0,0.0,0.0,89,0.00,,,0.00,WUHU216HW,2013-02-09 01:51:00,
2013-02-08 16:56:00,32.0,29.3,29.76,North,0,0.0,0.0,89,0.00,,,0.00,WUHU216HW,2013-02-09 01:56:00,
2013-02-08 17:01:00,31.9,29.1,29.76,North,0,0.0,0.0,89,0.00,,,0.00,WUHU216HW,2013-02-09 02:01:00,
2013-02-08 17:06:00,31.7,28.9,29.76,North,0,0.0,0.0,89,0.00,,,0.00,WUHU216HW,2013-02-09 02:06:00,
2013-02-08 17:11:00,31.5,28.7,29.76,North,0,0.0,0.0,89,0.00,,,0.00,WUHU216HW,2013-02-09 02:11:00,
2013-02-08 17:16:00,31.3,28.5,29.76,North,0,0.0,0.0,89,0.00,,,0.00,WUHU216HW,2013-02-09 02:16:00,
2013-02-08 17:21:00,31.0,28.2,29.76,North,0,0.0,0.0,89,0.00,,,0.00,WUHU216HW,2013-02-09 02:21:00,
2013-02-08 17:26:00,30.8,28.3,29.76,North,0,0.0,0.0,90,0.00,,,0.00,WUHU216HW,2013-02-09 02:26:00,
2013-02-08 17:31:00,30.6,28.1,29.76,North,0,0.0,0.0,90,0.00,,,0.00,WUHU216HW,2013-02-09 02:31:00,
2013-02-08 17:36:00,30.4,27.6,29.76,North,0,0.0,0.0,89,0.00,,,0.00,WUHU216HW,2013-02-09 02:36:00,
2013-02-08 17:41:00,30.2,27.5,29.76,North,0,0.0,0.0,89,0.00,,,0.00,WUHU216HW,2013-02-09 02:41:00,
2013-02-08 17:46:00,30.2,27.5,29.76,North,0,0.0,0.0,89,0.00,,,0.00,WUHU216HW,2013-02-09 02:46:00,
2013-02-08 17:51:00,29.9,27.1,29.76,North,0,0.0,0.0,89,0.00,,,0.00,WUHU216HW,2013-02-09 02:51:00,
2013-02-08 17:56:00,29.7,26.9,29.76,North,0,0.0,0.0,89,0.00,,,0.00,WUHU216HW,2013-02-09 02:56:00,
2013-02-08 18:01:00,29.2,26.4,29.76,North,0,0.0,0.0,89,0.00,,,0.00,WUHU216HW,2013-02-09 03:01:00,
2013-02-08 18:06:00,29.0,26.2,29.76,North,0,0.0,0.0,89,0.00,,,0.00,WUHU216HW,2013-02-09 03:06:00,
2013-02-08 18:11:00,28.8,26.0,29.76,North,0,0.0,0.0,89,0.00,,,0.00,WUHU216HW,2013-02-09 03:11:00,
2013-02-08 18:16:00,28.4,25.9,29.76,North,0,0.0,0.0,90,0.00,,,0.00,WUHU216HW,2013-02-09 03:16:00,
2013-02-08 18:21:00,28.3,25.7,29.76,North,0,0.0,0.0,90,0.00,,,0.00,WUHU216HW,2013-02-09 03:21:00,
2013-02-08 18:26:00,28.1,25.6,29.76,North,0,0.0,0.0,90,0.00,,,0.00,WUHU216HW,2013-02-09 03:26:00,
2013-02-08 18:31:00,27.7,25.2,29.76,North,0,0.0,0.0,90,0.00,,,0.00,WUHU216HW,2013-02-09 03:31:00,
2013-02-08 18:36:00,27.7,25.2,29.77,North,0,0.0,0.0,90,0.00,,,0.00,WUHU216HW,2013-02-09 03:36:00,
2013-02-08 18:41:00,27.7,25.2,29.77,North,0,0.0,0.0,90,0.00,,,0.00,WUHU216HW,2013-02-09 03:41:00,
2013-02-08 18:46:00,27.7,25.5,29.77,North,0,0.0,0.0,91,0.00,,,0.00,WUHU216HW,2013-02-09 03:46:00,
2013-02-08 18:51:00,27.7,25.5,29.77,North,0,0.0,0.0,91,0.00,,,0.00,WUHU216HW,2013-02-09 03:51:00,
2013-02-08 18:56:00,27.5,25.3,29.77,North,0,0.0,0.0,91,0.00,,,0.00,WUHU216HW,2013-02-09 03:56:00,
2013-02-08 19:01:00,27.5,25.3,29.77,North,0,0.0,0.0,91,0.00,,,0.00,WUHU216HW,2013-02-09 04:01:00,
2013-02-08 19:06:00,27.5,25.3,29.77,North,0,0.0,0.0,91,0.00,,,0.00,WUHU216HW,2013-02-09 04:06:00,
2013-02-08 19:11:00,27.7,25.5,29.77,North,0,0.0,0.0,91,0.00,,,0.00,WUHU216HW,2013-02-09 04:11:00,
2013-02-08 19:16:00,28.1,25.8,29.77,North,0,0.0,0.0,91,0.00,,,0.00,WUHU216HW,2013-02-09 04:16:00,
2013-02-08 19:21:00,28.3,26.0,29.77,North,0,0.0,0.0,91,0.00,,,0.00,WUHU216HW,2013-02-09 04:21:00,
2013-02-08 19:26:00,28.6,26.7,29.77,North,0,0.0,0.0,92,0.00,,,0.00,WUHU216HW,2013-02-09 04:26:00,
2013-02-08 19:31:00,28.8,26.8,29.78,North,0,0.0,0.0,92,0.00,,,0.00,WUHU216HW,2013-02-09 04:31:00,
2013-02-08 19:36:00,28.8,26.8,29.78,North,0,0.0,0.0,92,0.00,,,0.00,WUHU216HW,2013-02-09 04:36:00,
2013-02-08 19:41:00,28.8,26.8,29.78,North,0,0.0,0.0,92,0.00,,,0.00,WUHU216HW,2013-02-09 04:41:00,
2013-02-08 19:46:00,28.8,26.8,29.78,North,0,0.0,0.0,92,0.00,,,0.00,WUHU216HW,2013-02-09 04:46:00,
2013-02-08 19:51:00,28.6,26.7,29.78,North,0,0.0,0.0,92,0.00,,,0.00,WUHU216HW,2013-02-09 04:51:00,
2013-02-08 19:56:00,28.4,26.5,29.78,North,0,0.0,0.0,92,0.00,,,0.00,WUHU216HW,2013-02-09 04:56:00,
2013-02-08 20:00:00,28.4,26.5,29.78,North,0,0.0,0.0,92,0.00,,,0.00,WUHU216HW,2013-02-09 05:00:00,
2013-02-08 20:05:00,28.4,26.5,29.78,North,0,0.0,0.0,92,0.00,,,0.00,WUHU216HW,2013-02-09 05:05:00,
2013-02-08 20:10:00,28.4,26.5,29.78,North,0,0.0,0.0,92,0.00,,,0.00,WUHU216HW,2013-02-09 05:10:00,
2013-02-08 20:15:00,28.4,26.5,29.78,North,0,0.0,0.0,92,0.00,,,0.00,WUHU216HW,2013-02-09 05:15:00,
2013-02-08 20:20:00,28.4,26.5,29.78,North,0,0.0,0.0,92,0.00,,,0.00,WUHU216HW,2013-02-09 05:20:00,
2013-02-08 20:25:00,28.4,26.5,29.78,North,0,0.0,0.0,92,0.00,,,0.00,WUHU216HW,2013-02-09 05:25:00,
2013-02-08 20:30:00,28.4,26.5,29.78,North,0,0.0,0.0,92,0.00,,,0.00,WUHU216HW,2013-02-09 05:30:00,
2013-02-08 20:35:00,28.4,26.5,29.78,North,0,0.0,0.0,92,0.00,,,0.00,WUHU216HW,2013-02-09 05:35:00,
2013-02-08 20:40:00,28.4,26.5,29.79,North,0,0.0,0.0,92,0.00,,,0.00,WUHU216HW,2013-02-09 05:40:00,
2013-02-08 20:45:00,28.4,26.5,29.79,North,0,0.0,0.0,92,0.00,,,0.00,WUHU216HW,2013-02-09 05:45:00,
2013-02-08 20:50:00,28.4,26.5,29.78,North,0,0.0,0.0,92,0.00,,,0.00,WUHU216HW,2013-02-09 05:50:00,
2013-02-08 20:55:00,28.4,26.5,29.78,North,0,0.0,0.0,92,0.00,,,0.00,WUHU216HW,2013-02-09 05:55:00,
2013-02-08 21:00:00,28.4,26.5,29.78,North,0,0.0,0.0,92,0.00,,,0.00,WUHU216HW,2013-02-09 06:00:00,
2013-02-08 21:05:00,28.3,26.3,29.78,North,0,0.0,0.0,92,0.00,,,0.00,WUHU216HW,2013-02-09 06:05:00,
2013-02-08 21:10:00,28.3,26.3,29.78,North,0,0.0,0.0,92,0.00,,,0.00,WUHU216HW,2013-02-09 06:10:00,
2013-02-08 21:15:00,28.1,26.1,29.78,North,0,0.0,0.0,92,0.00,,,0.00,WUHU216HW,2013-02-09 06:15:00,
2013-02-08 21:20:00,28.1,26.1,29.78,North,0,0.0,0.0,92,0.00,,,0.00,WUHU216HW,2013-02-09 06:20:00,
2013-02-08 21:25:00,28.1,26.1,29.78,North,0,0.0,0.0,92,0.00,,,0.00,WUHU216HW,2013-02-09 06:25:00,
2013-02-08 21:30:00,28.1,26.1,29.78,North,0,0.0,0.0,92,0.00,,,0.00,WUHU216HW,2013-02-09 06:30:00,
2013-02-08 21:35:00,28.1,26.1,29.77,North,0,0.0,0.0,92,0.00,,,0.00,WUHU216HW,2013-02-09 06:35:00,
2013-02-08 21:40:00,28.1,26.1,29.77,North,0,0.0,0.0,92,0.00,,,0.00,WUHU216HW,2013-02-09 06:40:00,
2013-02-08 21:45:00,27.9,25.9,29.77,North,0,0.0,0.0,92,0.00,,,0.00,WUHU216HW,2013-02-09 06:45:00,
2013-02-08 21:50:00,27.9,25.9,29.77,North,0,0.0,0.0,92,0.00,,,0.00,WUHU216HW,2013-02-09 06:50:00,
2013-02-08 21:55:00,27.7,25.8,29.77,North,0,0.0,0.0,92,0.00,,,0.00,WUHU216HW,2013-02-09 06:55:00,
2013-02-08 22:00:00,27.9,25.9,29.77,North,0,0.0,0.0,92,0.00,,,0.00,WUHU216HW,2013-02-09 07:00:00,
2013-02-08 22:05:00,27.7,25.8,29.77,North,0,0.0,0.0,92,0.00,,,0.00,WUHU216HW,2013-02-09 07:05:00,
2013-02-08 22:10:00,27.7,25.8,29.77,North,0,0.0,0.0,92,0.00,,,0.00,WUHU216HW,2013-02-09 07:10:00,
2013-02-08 22:15:00,27.9,25.9,29.77,North,0,0.0,0.0,92,0.00,,,0.00,WUHU216HW,2013-02-09 07:15:00,
2013-02-08 22:20:00,27.7,25.8,29.76,North,0,0.0,0.0,92,0.00,,,0.00,WUHU216HW,2013-02-09 07:20:00,
2013-02-08 22:25:00,27.7,25.8,29.76,North,0,0.0,0.0,92,0.00,,,0.00,WUHU216HW,2013-02-09 07:25:00,
2013-02-08 22:30:00,27.7,25.8,29.76,North,0,0.0,0.0,92,0.00,,,0.00,WUHU216HW,2013-02-09 07:30:00,
2013-02-08 22:35:00,27.5,25.6,29.76,North,0,0.0,0.0,92,0.00,,,0.00,WUHU216HW,2013-02-09 07:35:00,
2013-02-08 22:40:00,27.5,25.6,29.76,North,0,0.0,0.0,92,0.00,,,0.00,WUHU216HW,2013-02-09 07:40:00,
2013-02-08 22:45:00,27.5,25.6,29.76,North,0,0.0,0.0,92,0.00,,,0.00,WUHU216HW,2013-02-09 07:45:00,
2013-02-08 22:50:00,27.5,25.6,29.76,North,0,0.0,0.0,92,0.00,,,0.00,WUHU216HW,2013-02-09 07:50:00,
2013-02-08 22:55:00,27.4,25.4,29.76,North,0,0.0,0.0,92,0.00,,,0.00,WUHU216HW,2013-02-09 07:55:00,
2013-02-08 23:00:00,27.4,25.4,29.76,North,0,0.0,0.0,92,0.00,,,0.00,WUHU216HW,2013-02-09 08:00:00,
2013-02-08 23:05:00,27.4,25.4,29.76,North,0,0.0,0.0,92,0.00,,,0.00,WUHU216HW,2013-02-09 08:05:00,
2013-02-08 23:10:00,27.2,25.2,29.76,North,0,0.0,0.0,92,0.00,,,0.00,WUHU216HW,2013-02-09 08:10:00,
2013-02-08 23:15:00,27.2,25.2,29.76,North,0,0.0,0.0,92,0.00,,,0.00,WUHU216HW,2013-02-09 08:15:00,
2013-02-08 23:20:00,27.4,25.4,29.75,North,0,0.0,0.0,92,0.00,,,0.00,WUHU216HW,2013-02-09 08:20:00,
2013-02-08 23:25:00,27.4,25.4,29.75,North,0,0.0,0.0,92,0.00,,,0.00,WUHU216HW,2013-02-09 08:25:00,
2013-02-08 23:30:00,27.4,25.4,29.75,North,0,0.0,0.0,92,0.00,,,0.00,WUHU216HW,2013-02-09 08:30:00,
2013-02-08 23:35:00,27.4,25.4,29.74,North,0,0.0,0.0,92,0.00,,,0.00,WUHU216HW,2013-02-09 08:35:00,
2013-02-08 23:40:00,27.4,25.4,29.74,North,0,0.0,0.0,92,0.00,,,0.00,WUHU216HW,2013-02-09 08:40:00,
2013-02-08 23:45:00,27.5,25.6,29.74,North,0,0.0,0.0,92,0.00,,,0.00,WUHU216HW,2013-02-09 08:45:00,
2013-02-08 23:50:00,27.4,25.4,29.73,North,0,0.0,0.0,92,0.00,,,0.00,WUHU216HW,2013-02-09 08:50:00,
2013-02-08 23:55:00,27.4,25.4,29.74,North,0,0.0,0.0,92,0.00,,,0.00,WUHU216HW,2013-02-09 08:55:00,